Alton, IL

08:14 AM CST am 04. Dezember 2016 (GMT -0600)
Alton - Christian Hill Area | | Change Station

Höhe 610 ft 38.90 °N, 90.19 °W | Updated 4 minutes ago

Drizzle
Nieselregen
35.6 °F
gefühlte 36 °F
N
2.0
Wind Wechselnd Wind aus Ost-Nordost
Gusts 0.0 mph

Heute
Max. -- | schwach -- °F
--% Regenrisiko
Gestern
Max. -- | schwach -- °F
Precip. -- inch
Druck 30.03 inch
Sichtweite 7.0 Meilen
Wolken Bedeckt 1900 ft
Windchill 36 °F
Taupunkt 33 °F
Feuchtigkeit 90%
Regen 0.02 inch
Schneehöhe Nicht verfügbar..
7:03 AM 4:38 PM
Erstes Viertel, 23% visible
METAR KALN 041357Z 09007KT 7SM DZ OVC019 02/01 A3003
Druck 30.03 inch
Sichtweite 7.0 Meilen
Wolken Bedeckt 1900 ft
Windchill 36 °F
Taupunkt 33 °F
Feuchtigkeit 90%
Regen 0.02 inch
Schneehöhe Nicht verfügbar..
7:03 AM 4:38 PM
Erstes Viertel, 23% visible
METAR KALN 041357Z 09007KT 7SM DZ OVC019 02/01 A3003

10-Day Weather Forecast

Almanac

Astronomie

Dec. 04, 2016 Aufgang Untergang
Genaue Zeit
Bürgerliche Dämmerung
Nautische Dämmerung
Astronomische Dämmerung
Mond
Länge des sichtbaren Lichts
Tageslänge
Tomorrow will be .
, % of the Moon is Illuminated

Heutige Rekorde

State Highs State Lows

Community

WunderPhotos

Upload Photos

1,955,598 Fotos hochgeladen!

WunderBlog® & News

Nearby

Luftqualität

  Luftqualität LQ Index Schadstoff
Not available.

Schneehöhe

Station Depth Höhe

Erdbebenaktivität

Stadt Distance Mag. Time & Date
Minimum magnitude displayed is 2.5.

küstennahe Wassertemperaturen

Ort Temperatur

Stations

Wetterstationen in der Umgebung

Stationsstandort Temp. Windchill Taupunkt Feuchtigkeit Wind Precip. Höhe Aktualisiert Art
                   

Watches & Warnings

There are currently no watches in effect.